Time;durP1;ratioP1;P1;durP2;ratioP2;P2;SDS_P1;SDS_P2;PMS_P1;PMS_P2;Temp;Humidity;BMP_temperature;BMP_pressure;BME280_temperature;BME280_humidity;BME280_pressure;Samples;Min_cycle;Max_cycle;Signal;HPM_P1;HPM_P2
2022/10/04 00:00:09;;;;;;;4.30;1.58;;;10.50;92.60;;;;;;6206627;23;20232;-89
2022/10/04 00:02:59;;;;;;;7.27;2.13;;;10.50;78.30;;;;;;6205772;23;20184;-89
2022/10/04 00:05:25;;;;;;;8.63;2.03;;;10.50;28.30;;;;;;6206135;23;20179;-89
2022/10/04 00:07:56;;;;;;;5.90;2.00;;;10.50;13.40;;;;;;6206724;23;20236;-89
2022/10/04 00:10:41;;;;;;;5.17;2.27;;;10.50;59.90;;;;;;6209384;23;20139;-88
2022/10/04 00:13:17;;;;;;;5.07;2.10;;;10.40;99.90;;;;;;6207519;23;20174;-89
2022/10/04 00:16:17;;;;;;;5.80;2.57;;;10.40;99.90;;;;;;6207743;23;20164;-89
2022/10/04 00:18:44;;;;;;;6.22;1.92;;;10.40;99.90;;;;;;6207811;23;20162;-88
2022/10/04 00:21:18;;;;;;;4.50;1.67;;;10.30;99.90;;;;;;6208009;23;20284;-89
2022/10/04 00:23:45;;;;;;;3.80;2.20;;;10.30;99.90;;;;;;6207855;23;20598;-88
2022/10/04 00:26:34;;;;;;;10.33;2.30;;;10.20;99.90;;;;;;6182970;23;20194;-88
2022/10/04 00:29:42;;;;;;;4.47;1.80;;;10.20;99.90;;;;;;6207779;23;20614;-88
2022/10/04 00:32:11;;;;;;;4.73;1.87;;;10.10;1.00;;;;;;6207069;23;20236;-88
2022/10/04 00:34:48;;;;;;;4.70;2.10;;;10.00;1.00;;;;;;6207632;23;20182;-88
2022/10/04 00:37:16;;;;;;;3.27;1.80;;;10.00;82.60;;;;;;6183139;23;20819;-89
2022/10/04 00:39:45;;;;;;;6.23;2.90;;;9.90;99.90;;;;;;6207480;23;20245;-89
2022/10/04 00:42:38;;;;;;;6.37;2.07;;;9.90;1.00;;;;;;6182901;23;20186;-88
2022/10/04 00:45:07;;;;;;;5.83;1.90;;;9.90;1.00;;;;;;6207435;23;20146;-88
2022/10/04 00:47:47;;;;;;;6.83;1.80;;;9.90;1.00;;;;;;6207731;23;20228;-89
2022/10/04 00:50:37;;;;;;;5.93;1.83;;;9.90;1.00;;;;;;6207602;23;20186;-88
2022/10/04 00:53:31;;;;;;;7.30;1.93;;;9.90;13.80;;;;;;6207192;23;20201;-89
2022/10/04 00:56:02;;;;;;;6.00;2.00;;;9.90;1.00;;;;;;6146773;23;20166;-89
2022/10/04 00:58:46;;;;;;;6.27;2.00;;;10.00;1.00;;;;;;6207775;23;20150;-88
2022/10/04 01:01:12;;;;;;;5.27;1.80;;;10.00;1.00;;;;;;6207629;23;20150;-89
2022/10/04 01:03:42;;;;;;;3.63;1.80;;;10.00;1.00;;;;;;6207432;23;20189;-88
2022/10/04 01:06:28;;;;;;;5.10;1.90;;;10.00;1.00;;;;;;6208989;23;20162;-88
2022/10/04 01:09:16;;;;;;;6.33;1.87;;;9.90;1.00;;;;;;6207121;23;20208;-89
2022/10/04 01:11:46;;;;;;;6.07;2.60;;;9.90;1.00;;;;;;6205772;23;20186;-88
2022/10/04 01:14:48;;;;;;;3.90;1.70;;;10.00;1.00;;;;;;6207204;23;20538;-89
2022/10/04 01:17:14;;;;;;;7.63;1.73;;;9.90;1.00;;;;;;6160393;23;20150;-89
2022/10/04 01:19:50;;;;;;;6.33;2.10;;;9.90;1.00;;;;;;6207409;23;20185;-89
2022/10/04 01:22:40;;;;;;;6.23;2.00;;;10.10;1.00;;;;;;6207359;23;20182;-89
2022/10/04 01:25:07;;;;;;;4.60;1.77;;;9.90;1.00;;;;;;6207130;23;20250;-89
2022/10/04 01:27:39;;;;;;;8.17;2.23;;;9.90;1.00;;;;;;6207409;23;20151;-89
2022/10/04 01:30:25;;;;;;;6.50;1.90;;;9.90;1.00;;;;;;6207258;23;20150;-88
2022/10/04 01:32:51;;;;;;;3.30;1.80;;;10.00;99.90;;;;;;6206776;23;20224;-89
2022/10/04 01:35:18;;;;;;;3.67;1.83;;;10.00;99.90;;;;;;6182081;23;20607;-89
2022/10/04 01:38:08;;;;;;;4.43;1.57;;;10.00;99.90;;;;;;6207284;23;20241;-89
2022/10/04 01:40:41;;;;;;;8.27;1.97;;;10.00;99.90;;;;;;6207168;23;20162;-88
2022/10/04 01:43:12;;;;;;;7.90;1.90;;;10.00;99.90;;;;;;6206785;23;20248;-88
2022/10/04 01:45:42;;;;;;;3.40;1.60;;;9.90;65.50;;;;;;6182541;23;20178;-87
2022/10/04 01:48:31;;;;;;;5.93;1.70;;;9.90;99.90;;;;;;6207230;23;20234;-89
2022/10/04 01:51:12;;;;;;;5.43;1.80;;;10.10;1.00;;;;;;6205427;23;20159;-88
2022/10/04 01:53:48;;;;;;;3.90;2.07;;;10.00;1.00;;;;;;6206874;23;20186;-89
2022/10/04 01:56:18;;;;;;;3.23;1.60;;;10.10;1.00;;;;;;6206995;23;20154;-89
2022/10/04 01:58:52;;;;;;;5.03;1.50;;;9.80;89.20;;;;;;6207248;23;20157;-88
2022/10/04 02:01:36;;;;;;;5.43;1.97;;;9.70;98.50;;;;;;6207196;23;20504;-89
2022/10/04 02:04:10;;;;;;;5.27;1.70;;;9.90;99.90;;;;;;6206854;23;20209;-89
2022/10/04 02:06:39;;;;;;;7.07;2.50;;;9.80;99.90;;;;;;6206933;23;20622;-89
2022/10/04 02:09:18;;;;;;;4.00;1.93;;;10.00;99.90;;;;;;6207314;23;20220;-89
2022/10/04 02:11:47;;;;;;;6.27;1.80;;;9.80;99.90;;;;;;6206598;23;20185;-89
2022/10/04 02:14:17;;;;;;;4.30;1.57;;;9.80;1.00;;;;;;6206698;23;20623;-89
2022/10/04 02:16:52;;;;;;;6.40;1.80;;;9.90;1.00;;;;;;6206852;23;20151;-88
2022/10/04 02:19:22;;;;;;;4.37;1.60;;;9.90;99.90;;;;;;6182233;23;20186;-88
2022/10/04 02:21:48;;;;;;;4.27;2.03;;;9.90;99.90;;;;;;6206937;23;20186;-88
2022/10/04 02:24:15;;;;;;;8.60;2.53;;;9.90;56.90;;;;;;6206863;23;20228;-89
2022/10/04 02:26:41;;;;;;;3.53;1.67;;;9.80;1.00;;;;;;6206541;23;20190;-89
2022/10/04 02:29:08;;;;;;;4.23;1.50;;;9.80;1.00;;;;;;6206782;23;20562;-89
2022/10/04 02:34:21;;;;;;;3.60;1.70;;;9.90;1.00;;;;;;6208716;23;20209;-89
2022/10/04 02:36:49;;;;;;;4.33;1.80;;;9.90;1.00;;;;;;6207555;23;20162;-88
2022/10/04 02:39:23;;;;;;;6.80;1.90;;;9.90;1.00;;;;;;6208578;23;20154;-88
2022/10/04 02:41:58;;;;;;;5.07;2.00;;;10.00;1.00;;;;;;6208381;23;20236;-88
2022/10/04 02:44:34;;;;;;;4.03;1.60;;;9.90;1.00;;;;;;6206934;23;20218;-88
2022/10/04 02:47:20;;;;;;;5.80;1.77;;;9.90;1.00;;;;;;6206671;23;20531;-88
2022/10/04 02:49:59;;;;;;;5.30;1.83;;;9.90;1.00;;;;;;6207161;23;20206;-88
2022/10/04 02:52:28;;;;;;;4.17;1.23;;;9.90;1.00;;;;;;6210261;23;20228;-88
2022/10/04 02:55:04;;;;;;;4.10;1.70;;;9.90;1.00;;;;;;6208305;23;20229;-88
2022/10/04 02:57:32;;;;;;;6.57;2.10;;;9.90;1.00;;;;;;6206697;23;20150;-89
2022/10/04 03:00:18;;;;;;;3.97;1.80;;;9.80;1.00;;;;;;6206486;23;20172;-88
2022/10/04 03:03:35;;;;;;;4.40;1.70;;;9.80;1.00;;;;;;6206914;23;20192;-88
2022/10/04 03:06:12;;;;;;;6.93;1.83;;;9.80;1.00;;;;;;6205945;23;20186;-88
2022/10/04 03:08:46;;;;;;;4.50;2.00;;;9.80;1.00;;;;;;6207302;23;20176;-88
2022/10/04 03:11:14;;;;;;;4.90;1.80;;;9.80;99.90;;;;;;6206437;23;20188;-88
2022/10/04 03:13:45;;;;;;;7.47;1.80;;;9.90;99.90;;;;;;6206881;23;20210;-88
2022/10/04 03:16:12;;;;;;;4.17;1.70;;;9.80;99.90;;;;;;6182433;23;20170;-88
2022/10/04 03:18:38;;;;;;;4.53;1.70;;;9.70;99.90;;;;;;6207413;23;20236;-88
2022/10/04 03:21:07;;;;;;;5.87;2.00;;;9.70;99.90;;;;;;6207020;23;20162;-88
2022/10/04 03:23:34;;;;;;;6.83;2.00;;;9.80;99.90;;;;;;6206565;23;20185;-88
2022/10/04 03:26:06;;;;;;;3.83;1.70;;;10.00;99.90;;;;;;6206746;23;20220;-88
2022/10/04 03:28:32;;;;;;;5.33;1.90;;;9.90;44.70;;;;;;6207010;23;20226;-88
2022/10/04 03:30:58;;;;;;;3.63;2.00;;;9.90;1.00;;;;;;6206729;23;20244;-89
2022/10/04 03:33:25;;;;;;;3.67;1.50;;;10.10;1.00;;;;;;6206604;23;20174;-87
2022/10/04 03:35:54;;;;;;;4.80;1.80;;;9.80;1.00;;;;;;6206868;23;20258;-89
2022/10/04 03:38:22;;;;;;;4.23;1.70;;;10.20;1.00;;;;;;6207141;23;20162;-88
2022/10/04 03:40:57;;;;;;;4.93;1.57;;;9.80;1.00;;;;;;6206888;23;20575;-88
2022/10/04 03:43:27;;;;;;;6.47;1.80;;;9.80;25.00;;;;;;6206970;23;20568;-87
2022/10/04 03:45:54;;;;;;;4.97;2.20;;;9.90;1.00;;;;;;6208137;23;20409;-88
2022/10/04 03:48:56;;;;;;;6.10;2.03;;;9.80;1.00;;;;;;6209194;23;20197;-88
2022/10/04 03:51:25;;;;;;;4.27;1.83;;;10.00;17.60;;;;;;6088294;23;20275;-88
2022/10/04 03:53:57;;;;;;;3.20;1.63;;;10.10;1.00;;;;;;6181899;23;20178;-88
2022/10/04 03:56:35;;;;;;;4.77;1.90;;;9.90;1.00;;;;;;6208757;23;20204;-88
2022/10/04 03:59:04;;;;;;;3.27;1.73;;;10.00;1.00;;;;;;6208267;23;20166;-88
2022/10/04 04:01:40;;;;;;;3.50;1.80;;;10.20;1.00;;;;;;6209804;23;20288;-88
2022/10/04 04:04:38;;;;;;;11.17;2.20;;;10.20;1.00;;;;;;6208510;23;20157;-88
2022/10/04 04:07:38;;;;;;;4.53;2.03;;;10.00;1.00;;;;;;6207502;23;20189;-89
2022/10/04 04:10:15;;;;;;;6.10;1.90;;;10.00;1.00;;;;;;6107513;23;20296;-88
2022/10/04 04:12:46;;;;;;;6.00;2.17;;;10.10;1.00;;;;;;6208406;23;20182;-88
2022/10/04 04:15:14;;;;;;;5.60;1.97;;;10.00;1.00;;;;;;6209781;23;20145;-89
2022/10/04 04:17:45;;;;;;;5.03;2.23;;;10.00;1.00;;;;;;6185117;23;20166;-88
2022/10/04 04:20:36;;;;;;;4.57;2.13;;;10.00;25.30;;;;;;6221355;23;20146;-89
2022/10/04 04:23:13;;;;;;;5.60;1.70;;;9.90;99.90;;;;;;6208340;23;20584;-88
2022/10/04 04:25:49;;;;;;;6.77;2.13;;;9.90;99.90;;;;;;6209687;23;20170;-89
2022/10/04 04:28:27;;;;;;;4.10;2.00;;;9.90;99.90;;;;;;6184324;23;20219;-89
2022/10/04 04:31:06;;;;;;;4.83;1.80;;;9.90;99.90;;;;;;6208127;23;20168;-88
2022/10/04 04:33:45;;;;;;;5.67;1.80;;;9.90;99.90;;;;;;6207670;23;20175;-88
2022/10/04 04:36:17;;;;;;;8.53;2.30;;;9.90;1.00;;;;;;6209627;23;20192;-88
2022/10/04 04:41:30;;;;;;;5.90;2.00;;;9.80;1.00;;;;;;6210887;23;20146;-88
2022/10/04 04:44:03;;;;;;;5.93;1.93;;;9.90;1.00;;;;;;6191360;23;20165;-89
2022/10/04 04:46:30;;;;;;;7.30;1.60;;;9.90;1.00;;;;;;6208199;23;20193;-88
2022/10/04 04:49:22;;;;;;;3.77;1.60;;;9.90;1.00;;;;;;6218511;23;20174;-88
2022/10/04 04:51:50;;;;;;;4.03;1.67;;;9.90;1.00;;;;;;6209628;23;20185;-88
2022/10/04 04:54:22;;;;;;;6.53;1.97;;;9.90;1.00;;;;;;6208371;23;20253;-89
2022/10/04 04:56:50;;;;;;;3.17;1.60;;;9.90;1.00;;;;;;6207883;23;20205;-89
2022/10/04 04:59:17;;;;;;;4.03;1.60;;;10.10;1.00;;;;;;6208141;23;20186;-88
2022/10/04 05:01:47;;;;;;;4.97;1.70;;;10.00;99.90;;;;;;6207562;23;20174;-88
2022/10/04 05:04:13;;;;;;;5.53;2.13;;;10.00;99.90;;;;;;6183135;23;20257;-89
2022/10/04 05:06:44;;;;;;;4.80;1.60;;;10.00;99.90;;;;;;6207569;23;20216;-89
2022/10/04 05:09:45;;;;;;;4.90;2.13;;;10.00;99.90;;;;;;6183342;23;20249;-88
2022/10/04 05:12:21;;;;;;;6.97;2.00;;;10.00;99.90;;;;;;6208260;23;20185;-89
2022/10/04 05:14:51;;;;;;;4.57;1.80;;;10.00;99.90;;;;;;6207782;23;20880;-88
2022/10/04 05:17:32;;;;;;;5.77;1.80;;;10.00;99.90;;;;;;6183321;23;20170;-89
2022/10/04 05:20:01;;;;;;;3.40;1.60;;;10.00;99.90;;;;;;6207914;23;20165;-89
2022/10/04 05:22:28;;;;;;;6.37;1.90;;;10.00;99.90;;;;;;6207705;23;20699;-89
2022/10/04 05:25:06;;;;;;;3.63;1.53;;;10.00;99.90;;;;;;6207355;23;20162;-87
2022/10/04 05:27:41;;;;;;;4.50;1.93;;;10.00;99.90;;;;;;6207697;23;20158;-88
2022/10/04 05:30:21;;;;;;;7.00;1.97;;;10.10;99.90;;;;;;6208931;23;20138;-89
2022/10/04 05:32:58;;;;;;;2.80;1.60;;;10.10;5.80;;;;;;6207163;23;20661;-89
2022/10/04 05:35:26;;;;;;;5.77;1.87;;;10.20;1.00;;;;;;6207532;23;20170;-88
2022/10/04 05:38:33;;;;;;;5.20;2.38;;;10.10;1.00;;;;;;6207643;23;20233;-89
2022/10/04 05:41:45;;;;;;;7.27;2.30;;;10.10;1.00;;;;;;6207419;23;20157;-89
2022/10/04 05:44:28;;;;;;;4.70;1.93;;;10.10;1.00;;;;;;6207431;23;20143;-89
2022/10/04 05:46:57;;;;;;;7.03;2.07;;;10.20;1.00;;;;;;6207285;23;20174;-89
2022/10/04 05:49:27;;;;;;;7.33;2.07;;;10.20;1.00;;;;;;6207548;23;20158;-88
2022/10/04 05:52:02;;;;;;;4.87;2.17;;;10.10;1.00;;;;;;6209999;23;20654;-89
2022/10/04 05:54:31;;;;;;;4.43;2.10;;;10.20;1.00;;;;;;6206314;23;20256;-89
2022/10/04 05:57:14;;;;;;;3.10;1.80;;;10.20;1.00;;;;;;6207495;23;20166;-88
2022/10/04 06:00:23;;;;;;;5.33;2.30;;;10.20;1.00;;;;;;6206779;23;20586;-89
2022/10/04 06:02:53;;;;;;;5.77;2.20;;;10.20;1.00;;;;;;6204955;23;20189;-89
2022/10/04 06:05:38;;;;;;;6.10;2.70;;;10.30;1.00;;;;;;6205707;23;20170;-88
2022/10/04 06:08:18;;;;;;;3.88;1.98;;;10.40;1.00;;;;;;6205783;23;20172;-88
2022/10/04 06:11:24;;;;;;;4.53;1.80;;;10.40;1.00;;;;;;6206204;23;20178;-88
2022/10/04 06:14:09;;;;;;;6.67;2.03;;;10.50;1.00;;;;;;6208785;23;20923;-88
2022/10/04 06:17:05;;;;;;;4.47;2.10;;;10.50;99.90;;;;;;6208593;23;20208;-89
2022/10/04 06:19:52;;;;;;;5.73;1.90;;;10.40;99.90;;;;;;6206851;23;20174;-88
2022/10/04 06:22:20;;;;;;;7.68;2.60;;;10.50;1.00;;;;;;6206720;23;21006;-88
2022/10/04 06:24:51;;;;;;;5.55;2.00;;;10.50;1.00;;;;;;6207180;23;20224;-88
2022/10/04 06:27:40;;;;;;;3.72;1.85;;;10.70;1.00;;;;;;6205612;23;20284;-88
2022/10/04 06:30:18;;;;;;;5.22;1.92;;;10.60;1.00;;;;;;6206733;23;20181;-89
2022/10/04 06:32:52;;;;;;;7.38;3.08;;;10.70;99.90;;;;;;6182013;23;20189;-88
2022/10/04 06:36:01;;;;;;;4.50;2.20;;;10.70;8.60;;;;;;6207274;23;20571;-89
2022/10/04 06:39:08;;;;;;;9.05;4.38;;;10.70;1.00;;;;;;6208373;23;20145;-89
2022/10/04 06:41:59;;;;;;;8.40;5.18;;;10.70;1.00;;;;;;6202878;23;20220;-89
2022/10/04 06:45:17;;;;;;;11.07;5.88;;;10.70;1.00;;;;;;6205156;23;20184;-89
2022/10/04 06:48:24;;;;;;;7.45;3.17;;;10.80;1.00;;;;;;6206497;23;20174;-89
2022/10/04 06:51:22;;;;;;;6.75;3.85;;;10.90;1.00;;;;;;6205562;23;20143;-89
2022/10/04 06:53:57;;;;;;;5.38;2.40;;;10.80;1.00;;;;;;6203710;23;20177;-89
2022/10/04 06:56:52;;;;;;;4.63;2.60;;;11.00;1.00;;;;;;6202930;23;20157;-88
2022/10/04 06:59:52;;;;;;;6.30;2.30;;;11.10;1.00;;;;;;6177286;23;20184;-89
2022/10/04 07:02:26;;;;;;;5.55;3.00;;;11.30;1.00;;;;;;6207506;23;20213;-88
2022/10/04 07:04:54;;;;;;;5.88;1.95;;;11.40;1.00;;;;;;6206574;23;20157;-89
2022/10/04 07:07:34;;;;;;;5.13;2.30;;;11.50;99.90;;;;;;6210237;23;20513;-86
2022/10/04 07:10:54;;;;;;;6.15;2.30;;;11.70;99.90;;;;;;6211262;23;20164;-86
2022/10/04 07:13:26;;;;;;;3.08;1.70;;;11.80;99.90;;;;;;6091581;23;20272;-86
2022/10/04 07:16:04;;;;;;;4.65;1.92;;;12.00;99.90;;;;;;6192595;23;20170;-86
2022/10/04 07:18:43;;;;;;;6.32;1.80;;;12.00;99.90;;;;;;6212182;23;20150;-86
2022/10/04 07:21:15;;;;;;;2.80;1.63;;;12.20;99.90;;;;;;6213761;23;20579;-87
2022/10/04 07:24:10;;;;;;;3.15;1.60;;;12.30;99.90;;;;;;6211774;23;20682;-87
2022/10/04 07:26:48;;;;;;;3.60;1.70;;;12.40;99.90;;;;;;6209653;23;20253;-86
2022/10/04 07:29:25;;;;;;;3.40;1.65;;;12.50;99.90;;;;;;6213084;23;20186;-86
2022/10/04 07:32:04;;;;;;;3.58;1.50;;;12.70;99.90;;;;;;6213076;23;20174;-86
2022/10/04 07:34:49;;;;;;;5.20;2.00;;;12.70;99.90;;;;;;6214392;23;20146;-86
2022/10/04 07:37:16;;;;;;;7.68;2.30;;;12.70;99.90;;;;;;6215009;23;20157;-86
2022/10/04 07:39:53;;;;;;;5.72;2.05;;;12.70;99.90;;;;;;6214528;23;20165;-87
2022/10/04 07:42:53;;;;;;;8.32;1.98;;;12.60;97.00;;;;;;6212562;23;20182;-89
2022/10/04 07:45:31;;;;;;;4.47;1.60;;;12.60;99.90;;;;;;6209737;23;20181;-88
2022/10/04 07:48:13;;;;;;;3.28;1.50;;;12.70;99.90;;;;;;6204607;23;20197;-89
2022/10/04 07:50:58;;;;;;;5.20;2.00;;;12.70;97.00;;;;;;6205081;23;20165;-88
2022/10/04 07:53:38;;;;;;;3.58;1.80;;;12.70;96.00;;;;;;6204244;23;20202;-88
2022/10/04 07:56:08;;;;;;;2.88;1.88;;;12.70;93.70;;;;;;6179622;23;20151;-88
2022/10/04 07:58:55;;;;;;;4.63;1.67;;;12.70;65.30;;;;;;6179181;23;20185;-88
2022/10/04 08:01:34;;;;;;;3.40;1.75;;;12.70;64.50;;;;;;6179339;23;20609;-88
2022/10/04 08:04:20;;;;;;;6.10;2.10;;;12.60;65.60;;;;;;6179875;23;21030;-88
2022/10/04 08:07:01;;;;;;;6.13;1.70;;;12.70;64.30;;;;;;6161828;23;20182;-88
2022/10/04 08:09:48;;;;;;;6.53;1.88;;;12.70;67.90;;;;;;6187049;23;20143;-88
2022/10/04 08:12:41;;;;;;;4.53;1.80;;;12.70;48.30;;;;;;6189821;23;20228;-88
2022/10/04 08:15:13;;;;;;;6.03;1.80;;;12.90;56.10;;;;;;6189909;23;20193;-88
2022/10/04 08:18:11;;;;;;;5.88;2.38;;;13.00;38.80;;;;;;6189829;23;20606;-89
2022/10/04 08:20:56;;;;;;;5.40;2.10;;;13.00;26.10;;;;;;6170657;23;20201;-87
2022/10/04 08:23:40;;;;;;;4.85;2.00;;;13.10;22.40;;;;;;6181958;23;20246;-89
2022/10/04 08:26:34;;;;;;;7.03;2.38;;;13.30;1.00;;;;;;6182136;23;20189;-89
2022/10/04 08:32:42;;;;;;;7.82;2.63;;;13.50;1.00;;;;;;6210342;23;20190;-89
2022/10/04 08:35:11;;;;;;;13.27;6.30;;;13.80;1.00;;;;;;6185786;23;20151;-90
2022/10/04 08:38:03;;;;;;;7.57;3.40;;;14.20;1.00;;;;;;6185925;23;20162;-89
2022/10/04 08:40:51;;;;;;;10.55;4.15;;;14.40;1.00;;;;;;6213436;23;20146;-88
2022/10/04 08:43:41;;;;;;;9.18;3.47;;;14.70;1.00;;;;;;6163829;23;20178;-87
2022/10/04 08:46:22;;;;;;;7.57;3.38;;;14.80;1.00;;;;;;6134539;23;20704;-87
2022/10/04 08:49:06;;;;;;;6.50;3.42;;;14.80;1.00;;;;;;6193395;23;20139;-89
2022/10/04 08:52:15;;;;;;;10.35;4.30;;;14.90;1.00;;;;;;6187988;23;20237;-86
2022/10/04 08:55:19;;;;;;;11.70;6.10;;;14.90;1.00;;;;;;6199995;23;20174;-88
2022/10/04 08:58:13;;;;;;;8.48;3.63;;;14.90;1.00;;;;;;6211733;23;20610;-87
2022/10/04 09:01:08;;;;;;;7.15;2.97;;;15.10;1.00;;;;;;6213178;23;20200;-88
2022/10/04 09:04:01;;;;;;;8.00;2.78;;;15.20;1.00;;;;;;6213517;23;20261;-86
2022/10/04 09:07:09;;;;;;;6.15;2.78;;;15.10;1.00;;;;;;6211742;23;20209;-88
2022/10/04 09:09:55;;;;;;;8.23;3.40;;;15.20;1.00;;;;;;6210341;23;20174;-88
2022/10/04 09:12:46;;;;;;;7.72;3.88;;;15.20;1.00;;;;;;6209947;23;20181;-89
2022/10/04 09:15:20;;;;;;;7.70;3.05;;;15.20;1.00;;;;;;6208697;23;20146;-89
2022/10/04 09:18:10;;;;;;;8.25;3.13;;;15.20;1.00;;;;;;6207520;23;20150;-88
2022/10/04 09:21:00;;;;;;;5.93;2.53;;;15.10;1.00;;;;;;6207631;23;20225;-88
2022/10/04 09:23:48;;;;;;;5.43;2.00;;;14.80;1.00;;;;;;6208331;23;20178;-88
2022/10/04 09:26:31;;;;;;;5.75;1.90;;;14.70;1.00;;;;;;6208669;23;20281;-88
2022/10/04 09:29:19;;;;;;;6.28;2.80;;;14.60;1.00;;;;;;6208084;23;20201;-87
2022/10/04 09:31:54;;;;;;;6.13;2.42;;;14.50;1.00;;;;;;6209454;23;20177;-87
2022/10/04 09:34:51;;;;;;;6.45;2.80;;;14.50;1.00;;;;;;6208082;23;20157;-88
2022/10/04 09:37:38;;;;;;;6.53;2.60;;;14.70;1.00;;;;;;6208195;23;20166;-88
2022/10/04 09:40:24;;;;;;;7.32;2.35;;;14.80;1.00;;;;;;6209668;23;20150;-88
2022/10/04 09:43:18;;;;;;;7.47;2.40;;;15.10;1.00;;;;;;6206425;23;20186;-89
2022/10/04 09:46:16;;;;;;;6.30;2.10;;;15.30;1.00;;;;;;6204420;23;20192;-88
2022/10/04 09:48:53;;;;;;;7.60;2.40;;;15.30;1.00;;;;;;6102172;23;20613;-88
2022/10/04 09:51:49;;;;;;;6.85;2.22;;;15.10;1.00;;;;;;6205536;23;20150;-88
2022/10/04 09:54:43;;;;;;;5.30;2.10;;;15.20;1.00;;;;;;6228312;23;20170;-89
2022/10/04 09:57:26;;;;;;;5.07;2.17;;;15.30;1.00;;;;;;6232148;23;20146;-90
2022/10/04 10:00:11;;;;;;;4.38;2.33;;;15.20;1.00;;;;;;6232118;23;20154;-89
2022/10/04 10:03:02;;;;;;;8.75;2.65;;;15.20;1.00;;;;;;6231475;23;20174;-90
2022/10/04 10:05:47;;;;;;;6.95;2.50;;;15.10;1.00;;;;;;6230259;23;20137;-90
2022/10/04 10:08:43;;;;;;;5.13;2.72;;;15.20;1.00;;;;;;6234685;23;20158;-90
2022/10/04 10:15:05;;;;;;;7.10;2.53;;;15.10;1.00;;;;;;6141200;23;20177;-90
2022/10/04 10:18:00;;;;;;;4.75;1.92;;;15.10;1.00;;;;;;6230549;23;20145;-89
2022/10/04 10:20:31;;;;;;;5.57;2.10;;;15.00;1.00;;;;;;6210853;23;20150;-90
2022/10/04 10:23:03;;;;;;;7.55;2.33;;;15.00;1.00;;;;;;6233226;23;20166;-89
2022/10/04 10:25:46;;;;;;;7.70;2.50;;;15.00;1.00;;;;;;6228800;23;20150;-88
2022/10/04 10:28:48;;;;;;;5.65;2.10;;;15.00;1.00;;;;;;6210737;23;20406;-89
2022/10/04 10:31:41;;;;;;;5.53;1.65;;;15.00;1.00;;;;;;6210202;23;20233;-88
2022/10/04 10:34:26;;;;;;;5.72;2.00;;;14.90;1.00;;;;;;6208501;23;20161;-89
2022/10/04 10:37:00;;;;;;;6.68;1.70;;;15.00;1.00;;;;;;6207129;23;20170;-88
2022/10/04 10:39:43;;;;;;;7.00;2.08;;;15.20;1.00;;;;;;6206427;23;20153;-88
2022/10/04 10:42:33;;;;;;;4.50;1.65;;;15.30;1.00;;;;;;6206809;23;20186;-88
2022/10/04 10:45:22;;;;;;;7.00;1.40;;;15.40;1.00;;;;;;6207010;23;20590;-88
2022/10/04 10:48:23;;;;;;;4.13;1.58;;;15.50;1.00;;;;;;6208692;23;20143;-88
2022/10/04 10:51:12;;;;;;;9.00;1.70;;;15.50;1.00;;;;;;6198619;23;20485;-88
2022/10/04 10:53:44;;;;;;;5.80;1.83;;;15.50;1.00;;;;;;6208344;23;20340;-88
2022/10/04 10:56:40;;;;;;;5.22;1.50;;;15.40;1.00;;;;;;6184661;23;20170;-89
2022/10/04 10:59:34;;;;;;;3.65;1.15;;;15.30;1.00;;;;;;6191502;23;20257;-89
2022/10/04 11:02:17;;;;;;;5.82;1.80;;;15.50;1.00;;;;;;6182397;23;20190;-88
2022/10/04 11:05:14;;;;;;;5.65;2.03;;;15.60;1.00;;;;;;6208009;23;20142;-88
2022/10/04 11:08:04;;;;;;;9.38;3.35;;;15.70;1.00;;;;;;6181941;23;20216;-87
2022/10/04 11:10:51;;;;;;;9.73;3.90;;;15.90;1.00;;;;;;6185686;23;20182;-87
2022/10/04 11:13:46;;;;;;;14.30;5.38;;;16.20;1.00;;;;;;6185996;23;20193;-88
2022/10/04 11:16:18;;;;;;;15.30;6.30;;;16.10;1.00;;;;;;6184368;23;20154;-87
2022/10/04 11:19:02;;;;;;;12.93;4.78;;;16.10;1.00;;;;;;6212101;23;20138;-88
2022/10/04 11:21:53;;;;;;;10.05;3.70;;;16.10;1.00;;;;;;6186588;23;20241;-87
2022/10/04 11:24:30;;;;;;;10.55;4.72;;;16.20;1.00;;;;;;6186897;23;20151;-88
2022/10/04 11:27:02;;;;;;;15.88;6.50;;;16.10;1.00;;;;;;6185667;23;20181;-89
2022/10/04 11:30:01;;;;;;;13.52;6.35;;;16.10;1.00;;;;;;6186510;23;20163;-88
2022/10/04 11:32:29;;;;;;;12.77;5.80;;;16.00;1.00;;;;;;6183721;23;20228;-87
2022/10/04 11:35:27;;;;;;;10.40;5.22;;;16.10;1.00;;;;;;6183061;23;20159;-88
2022/10/04 11:38:08;;;;;;;15.25;7.40;;;16.10;1.00;;;;;;6179143;23;20166;-88
2022/10/04 11:40:55;;;;;;;7.50;3.10;;;16.10;1.00;;;;;;6181494;23;20166;-87
2022/10/04 11:43:40;;;;;;;12.25;5.95;;;16.10;1.00;;;;;;6210884;23;20170;-87
2022/10/04 11:46:26;;;;;;;12.32;6.93;;;16.20;1.00;;;;;;6186791;23;20623;-88
2022/10/04 11:49:22;;;;;;;13.93;7.25;;;16.20;1.00;;;;;;6165016;23;20237;-88
2022/10/04 11:52:29;;;;;;;11.48;6.00;;;16.20;1.00;;;;;;6212443;23;20228;-88
2022/10/04 11:55:22;;;;;;;13.43;7.10;;;16.30;1.00;;;;;;6202118;23;20219;-89
2022/10/04 11:58:02;;;;;;;7.75;3.78;;;16.30;1.00;;;;;;6208012;23;20178;-87
2022/10/04 12:01:02;;;;;;;6.95;3.20;;;16.20;1.00;;;;;;6209672;23;20189;-87
2022/10/04 12:03:58;;;;;;;5.93;3.40;;;16.20;1.00;;;;;;6207287;23;20713;-88
2022/10/04 12:06:43;;;;;;;5.85;2.60;;;16.10;1.00;;;;;;6209981;23;20170;-87
2022/10/04 12:09:11;;;;;;;4.32;2.13;;;16.10;1.00;;;;;;6210418;23;20164;-88
2022/10/04 12:15:48;;;;;;;3.78;1.90;;;16.10;1.00;;;;;;6212905;23;20149;-87
2022/10/04 12:18:33;;;;;;;4.00;2.10;;;16.10;1.00;;;;;;6186626;23;20158;-87
2022/10/04 12:21:07;;;;;;;4.43;1.73;;;16.30;1.00;;;;;;6210931;23;20185;-87
2022/10/04 12:23:56;;;;;;;4.45;2.00;;;16.30;1.00;;;;;;6211395;23;20165;-87
2022/10/04 12:26:54;;;;;;;3.47;1.83;;;16.30;1.00;;;;;;6209743;23;20178;-87
2022/10/04 12:30:01;;;;;;;2.83;1.40;;;16.40;1.00;;;;;;6211729;23;20149;-88
2022/10/04 12:32:35;;;;;;;3.30;1.35;;;16.30;1.00;;;;;;6215773;23;20174;-88
2022/10/04 12:35:34;;;;;;;3.75;1.45;;;16.20;1.00;;;;;;6213363;23;20148;-88
2022/10/04 12:38:23;;;;;;;4.70;1.52;;;16.40;1.00;;;;;;6147589;23;20158;-87
2022/10/04 12:41:26;;;;;;;3.70;1.10;;;16.40;1.00;;;;;;6212858;23;20177;-87
2022/10/04 12:44:10;;;;;;;2.83;1.67;;;16.40;1.00;;;;;;6211917;23;20154;-87
2022/10/04 12:46:55;;;;;;;3.10;1.40;;;16.40;1.00;;;;;;6212199;23;20174;-86
2022/10/04 12:49:26;;;;;;;3.65;1.63;;;16.30;1.00;;;;;;6212433;23;20547;-86
2022/10/04 12:52:02;;;;;;;2.13;1.50;;;16.30;1.00;;;;;;6216002;23;20193;-86
2022/10/04 12:54:41;;;;;;;2.25;1.23;;;16.40;1.00;;;;;;6214228;23;20197;-86
2022/10/04 12:57:06;;;;;;;3.97;1.75;;;16.50;1.00;;;;;;6213592;23;20224;-86
2022/10/04 12:59:38;;;;;;;3.05;1.52;;;16.50;1.00;;;;;;6211833;23;20601;-87
2022/10/04 13:02:04;;;;;;;3.25;1.63;;;16.60;1.00;;;;;;6211537;23;20178;-86
2022/10/04 13:04:39;;;;;;;3.30;1.40;;;16.70;1.00;;;;;;6213346;23;20224;-86
2022/10/04 13:07:35;;;;;;;2.58;1.42;;;16.70;1.00;;;;;;6212142;23;20240;-86
2022/10/04 13:10:19;;;;;;;3.13;1.50;;;16.60;1.00;;;;;;6212320;23;20243;-86
2022/10/04 13:13:13;;;;;;;4.30;1.50;;;16.60;1.00;;;;;;6210370;23;20174;-87
2022/10/04 13:15:57;;;;;;;5.10;2.00;;;16.60;1.00;;;;;;6210008;23;20173;-87
2022/10/04 13:18:36;;;;;;;2.50;1.42;;;16.60;1.00;;;;;;6212086;23;20158;-87
2022/10/04 13:21:05;;;;;;;3.95;1.80;;;16.70;1.00;;;;;;6209951;23;20314;-87
2022/10/04 13:23:56;;;;;;;4.60;1.73;;;16.70;1.00;;;;;;6208375;23;20206;-87
2022/10/04 13:26:43;;;;;;;6.10;1.95;;;16.80;1.00;;;;;;6208355;23;20206;-87
2022/10/04 13:29:36;;;;;;;3.90;2.10;;;16.80;1.00;;;;;;6209821;23;20141;-87
2022/10/04 13:32:20;;;;;;;3.85;2.00;;;16.70;1.00;;;;;;6208767;23;20217;-87
2022/10/04 13:35:07;;;;;;;3.28;1.58;;;16.70;1.00;;;;;;6207049;23;20146;-86
2022/10/04 13:37:43;;;;;;;2.97;1.58;;;16.70;1.00;;;;;;6206002;23;20169;-87
2022/10/04 13:40:20;;;;;;;5.65;1.92;;;16.80;1.00;;;;;;6207038;23;20150;-87
2022/10/04 13:43:04;;;;;;;5.50;1.95;;;17.00;1.00;;;;;;6205304;23;20185;-89
2022/10/04 13:45:52;;;;;;;3.28;1.73;;;17.10;1.00;;;;;;6205505;23;20483;-89
2022/10/04 13:48:36;;;;;;;4.68;1.98;;;17.30;1.00;;;;;;6210206;23;20159;-87
2022/10/04 13:51:14;;;;;;;3.35;2.00;;;17.30;1.00;;;;;;6210367;23;20151;-86
2022/10/04 13:56:43;;;;;;;2.58;1.98;;;17.30;1.00;;;;;;6206342;23;20157;-87
2022/10/04 13:59:28;;;;;;;4.78;1.88;;;17.30;1.00;;;;;;6204216;23;20422;-87
2022/10/04 14:02:21;;;;;;;3.97;1.50;;;17.20;1.00;;;;;;6207095;23;20209;-87
2022/10/04 14:05:25;;;;;;;2.90;1.50;;;17.30;1.00;;;;;;6206518;23;20234;-89
2022/10/04 14:08:11;;;;;;;2.53;1.48;;;17.40;1.00;;;;;;6204994;23;20247;-87
2022/10/04 14:11:20;;;;;;;5.53;1.67;;;17.50;1.00;;;;;;6205291;23;20226;-86
2022/10/04 14:13:52;;;;;;;3.65;2.30;;;17.40;1.00;;;;;;6203353;23;20185;-86
2022/10/04 14:16:47;;;;;;;2.58;1.77;;;17.30;1.00;;;;;;6204473;23;20487;-87
2022/10/04 14:19:31;;;;;;;5.50;1.83;;;17.10;1.00;;;;;;6098963;23;20165;-88
2022/10/04 14:22:12;;;;;;;4.63;1.98;;;17.10;1.00;;;;;;6203832;23;20564;-87
2022/10/04 14:24:45;;;;;;;3.25;1.70;;;17.00;1.00;;;;;;6203700;23;20166;-88
2022/10/04 14:27:48;;;;;;;4.25;1.65;;;17.00;1.00;;;;;;6207051;23;20214;-86
2022/10/04 14:30:38;;;;;;;4.03;2.13;;;17.00;1.00;;;;;;6204330;23;20146;-87